createdAt,value
2018-08-28T00:01:18.678Z,100507.47
2018-08-28T00:03:46.700Z,100508.23
2018-08-28T00:06:15.190Z,100506.38
2018-08-28T00:08:43.579Z,100504.34
2018-08-28T00:11:13.400Z,100512.59
2018-08-28T00:13:41.470Z,100517.89
2018-08-28T00:16:09.525Z,100514.70
2018-08-28T00:18:37.588Z,100520.26
2018-08-28T00:21:05.658Z,100513.31
2018-08-28T00:23:33.798Z,100511.17
2018-08-28T00:26:01.919Z,100509.02
2018-08-28T00:28:31.053Z,100506.69
2018-08-28T00:31:05.445Z,100515.70
2018-08-28T00:33:33.592Z,100522.34
2018-08-28T00:36:01.898Z,100524.48
2018-08-28T00:38:30.272Z,100524.48
2018-08-28T00:40:58.578Z,100528.14
2018-08-28T00:43:26.945Z,100531.13
2018-08-28T00:45:55.413Z,100524.71
2018-08-28T00:48:23.492Z,100526.50
2018-08-28T00:50:52.088Z,100529.64
2018-08-28T00:53:25.521Z,100531.48
2018-08-28T00:55:53.648Z,100534.00
2018-08-28T00:58:22.249Z,100541.23
2018-08-28T01:00:50.664Z,100538.43
2018-08-28T01:03:18.752Z,100546.40
2018-08-28T01:05:47.125Z,100541.59
2018-08-28T01:08:15.285Z,100544.89
2018-08-28T01:10:43.725Z,100545.25
2018-08-28T01:13:12.155Z,100544.57
2018-08-28T01:15:40.606Z,100547.58
2018-08-28T01:18:08.766Z,100554.17
2018-08-28T01:20:36.887Z,100560.44
2018-08-28T01:23:04.972Z,100560.42
2018-08-28T01:25:33.021Z,100561.03
2018-08-28T01:28:01.132Z,100560.16
2018-08-28T01:30:35.952Z,100555.94
2018-08-28T01:33:05.790Z,100558.45
2018-08-28T01:35:34.630Z,100564.60
2018-08-28T01:38:03.023Z,100560.48
2018-08-28T01:40:31.802Z,100563.41
2018-08-28T01:43:00.160Z,100553.09
2018-08-28T01:45:28.249Z,100560.62
2018-08-28T01:47:56.285Z,100560.94
2018-08-28T01:50:24.760Z,100564.78
2018-08-28T01:52:52.869Z,100564.09
2018-08-28T01:55:21.405Z,100563.39
2018-08-28T01:57:49.451Z,100563.72
2018-08-28T02:00:17.667Z,100561.63
2018-08-28T02:02:45.852Z,100568.27
2018-08-28T02:05:14.179Z,100566.28
2018-08-28T02:07:42.772Z,100562.63
2018-08-28T02:10:11.023Z,100562.08
2018-08-28T02:12:39.187Z,100564.59
2018-08-28T02:15:07.371Z,100560.11
2018-08-28T02:17:35.447Z,100563.27
2018-08-28T02:20:03.550Z,100565.73
2018-08-28T02:22:31.753Z,100563.22
2018-08-28T02:24:59.827Z,100566.67
2018-08-28T02:27:28.192Z,100566.42
2018-08-28T02:29:56.457Z,100567.11
2018-08-28T02:32:24.739Z,100570.03
2018-08-28T02:34:52.928Z,100573.05
2018-08-28T02:37:21.180Z,100565.09
2018-08-28T02:39:49.343Z,100564.22
2018-08-28T02:42:17.410Z,100563.70
2018-08-28T02:44:45.572Z,100570.48
2018-08-28T02:47:15.138Z,100572.67
2018-08-28T02:49:43.295Z,100574.70
2018-08-28T02:52:11.653Z,100569.72
2018-08-28T02:54:39.953Z,100569.20
2018-08-28T02:57:08.619Z,100572.98
2018-08-28T02:59:36.983Z,100574.39
2018-08-28T03:02:05.580Z,100571.16
2018-08-28T03:04:33.960Z,100569.02
2018-08-28T03:07:02.425Z,100572.36
2018-08-28T03:09:30.657Z,100574.05
2018-08-28T03:11:58.783Z,100574.31
2018-08-28T03:14:26.896Z,100564.44
2018-08-28T03:16:55.147Z,100565.86
2018-08-28T03:19:24.335Z,100573.63
2018-08-28T03:21:52.892Z,100577.11
2018-08-28T03:24:21.583Z,100583.72
2018-08-28T03:26:49.900Z,100581.41
2018-08-28T03:29:18.471Z,100587.62
2018-08-28T03:31:46.704Z,100599.63
2018-08-28T03:34:14.697Z,100598.92
2018-08-28T03:36:42.820Z,100601.48
2018-08-28T03:39:11.113Z,100600.38
2018-08-28T03:41:39.347Z,100599.24
2018-08-28T03:44:07.357Z,100597.31
2018-08-28T03:46:35.553Z,100591.45
2018-08-28T03:49:03.587Z,100594.89
2018-08-28T03:51:31.741Z,100597.83
2018-08-28T03:53:59.754Z,100602.20
2018-08-28T03:56:27.757Z,100606.73
2018-08-28T03:58:55.838Z,100599.41
2018-08-28T04:01:23.912Z,100611.76
2018-08-28T04:03:52.183Z,100604.53
2018-08-28T04:06:20.398Z,100613.83
2018-08-28T04:08:48.428Z,100609.84
2018-08-28T04:11:17.422Z,100603.66
2018-08-28T04:13:46.099Z,100616.22
2018-08-28T04:16:14.112Z,100619.87
2018-08-28T04:18:42.173Z,100614.06
2018-08-28T04:21:10.187Z,100622.41
2018-08-28T04:23:38.327Z,100628.89
2018-08-28T04:26:06.382Z,100626.63
2018-08-28T04:28:34.549Z,100631.50
2018-08-28T04:31:02.615Z,100632.30
2018-08-28T04:33:30.696Z,100633.63
2018-08-28T04:35:58.678Z,100633.44
2018-08-28T04:38:27.807Z,100629.58
2018-08-28T04:40:55.884Z,100625.22
2018-08-28T04:43:23.899Z,100625.35
2018-08-28T04:45:51.916Z,100631.84
2018-08-28T04:48:20.193Z,100636.78
2018-08-28T04:50:48.259Z,100642.08
2018-08-28T04:53:16.609Z,100636.86
2018-08-28T04:55:44.716Z,100641.14
2018-08-28T04:58:13.229Z,100647.25
2018-08-28T05:00:41.280Z,100643.27
2018-08-28T05:03:09.736Z,100652.11
2018-08-28T05:05:38.266Z,100655.73
2018-08-28T05:08:06.558Z,100659.39
2018-08-28T05:10:34.687Z,100652.77
2018-08-28T05:13:03.083Z,100657.67
2018-08-28T05:15:37.741Z,100662.09
2018-08-28T05:18:06.867Z,100665.77
2018-08-28T05:20:35.188Z,100670.97
2018-08-28T05:23:14.993Z,100668.56
2018-08-28T05:25:43.198Z,100676.72
2018-08-28T05:45:24.538Z,100680.97
2018-08-28T05:47:52.780Z,100685.80
2018-08-28T05:56:06.980Z,100692.55
2018-08-28T05:58:36.352Z,100695.89
2018-08-28T06:01:04.496Z,100687.23
2018-08-28T06:03:33.168Z,100694.03
2018-08-28T06:06:01.282Z,100695.22
2018-08-28T06:08:36.123Z,100702.29
2018-08-28T06:11:04.241Z,100700.35
2018-08-28T06:13:33.885Z,100710.16
2018-08-28T06:16:02.077Z,100706.45
2018-08-28T06:18:30.414Z,100706.41
2018-08-28T06:20:59.220Z,100710.05
2018-08-28T06:23:27.338Z,100712.08
2018-08-28T06:25:55.478Z,100709.95
2018-08-28T06:28:23.723Z,100714.92
2018-08-28T06:30:51.817Z,100716.46
2018-08-28T06:33:20.028Z,100719.32
2018-08-28T06:35:48.109Z,100722.14
2018-08-28T06:38:16.099Z,100724.83
2018-08-28T06:40:44.244Z,100717.95
2018-08-28T06:43:12.407Z,100725.50
2018-08-28T06:45:40.631Z,100723.99
2018-08-28T06:48:09.759Z,100727.06
2018-08-28T06:50:37.949Z,100730.55
2018-08-28T06:53:06.145Z,100730.55
2018-08-28T06:55:34.358Z,100729.88
2018-08-28T06:58:02.311Z,100732.05
2018-08-28T07:00:30.444Z,100735.19
2018-08-28T07:02:58.516Z,100740.38
2018-08-28T07:05:26.968Z,100731.36
2018-08-28T07:07:55.152Z,100746.84
2018-08-28T07:10:24.347Z,100752.33
2018-08-28T07:12:52.522Z,100751.48
2018-08-28T07:15:20.631Z,100750.68
2018-08-28T07:17:48.791Z,100757.69
2018-08-28T07:20:16.925Z,100759.68
2018-08-28T07:22:45.167Z,100763.48
2018-08-28T07:25:13.357Z,100768.64
2018-08-28T07:27:41.540Z,100765.30
2018-08-28T07:30:09.686Z,100767.81
2018-08-28T07:32:37.847Z,100769.34
2018-08-28T07:35:06.169Z,100776.30
2018-08-28T07:37:34.352Z,100775.28
2018-08-28T07:40:02.569Z,100782.28
2018-08-28T07:42:30.659Z,100779.48
2018-08-28T07:44:58.813Z,100776.31
2018-08-28T07:47:26.938Z,100780.14
2018-08-28T07:49:55.021Z,100777.60
2018-08-28T07:52:23.158Z,100778.77
2018-08-28T07:54:51.374Z,100776.20
2018-08-28T07:57:19.546Z,100780.45
2018-08-28T07:59:47.752Z,100781.94
2018-08-28T08:02:15.934Z,100789.62
2018-08-28T08:04:44.146Z,100799.30
2018-08-28T08:07:12.444Z,100797.44
2018-08-28T08:09:40.824Z,100789.92
2018-08-28T08:12:08.884Z,100791.28
2018-08-28T08:14:37.105Z,100791.31
2018-08-28T08:17:05.289Z,100791.66
2018-08-28T08:19:33.459Z,100790.17
2018-08-28T08:22:01.600Z,100788.84
2018-08-28T08:24:29.788Z,100786.58
2018-08-28T08:26:58.147Z,100786.02
2018-08-28T08:29:26.399Z,100787.44
2018-08-28T08:31:54.607Z,100790.39
2018-08-28T08:34:22.747Z,100790.52
2018-08-28T08:36:51.052Z,100788.72
2018-08-28T08:39:19.020Z,100792.89
2018-08-28T08:41:47.060Z,100792.72
2018-08-28T08:44:15.028Z,100787.48
2018-08-28T08:46:42.978Z,100788.50
2018-08-28T08:49:10.912Z,100788.20
2018-08-28T08:51:38.894Z,100788.66
2018-08-28T08:54:06.834Z,100783.50
2018-08-28T08:56:34.997Z,100784.22
2018-08-28T08:59:06.951Z,100777.30
2018-08-28T09:01:34.974Z,100779.58
2018-08-28T09:04:03.090Z,100768.08
2018-08-28T09:06:31.193Z,100778.93
2018-08-28T09:08:59.245Z,100774.38
2018-08-28T09:11:27.235Z,100782.99
2018-08-28T09:13:55.758Z,100782.43
2018-08-28T09:16:23.697Z,100783.28
2018-08-28T09:18:52.175Z,100780.22
2018-08-28T09:21:20.094Z,100789.56
2018-08-28T09:23:48.062Z,100782.67
2018-08-28T09:26:16.076Z,100775.97
2018-08-28T09:28:43.959Z,100784.55
2018-08-28T09:31:11.938Z,100766.55
2018-08-28T09:33:39.858Z,100767.47
2018-08-28T09:36:07.950Z,100749.73
2018-08-28T09:38:35.899Z,100759.79
2018-08-28T09:41:03.940Z,100766.48
2018-08-28T09:43:31.939Z,100765.90
2018-08-28T09:45:59.920Z,100763.73
2018-08-28T09:51:20.078Z,100763.34
2018-08-28T09:53:53.434Z,100762.21
2018-08-28T10:04:58.962Z,100769.58
2018-08-28T10:33:21.166Z,100768.73
2018-08-28T10:41:34.012Z,100761.58
2018-08-28T11:27:29.684Z,100782.44
2018-08-28T11:29:57.811Z,100785.47
2018-08-28T11:32:26.259Z,100791.27
2018-08-28T11:34:54.461Z,100780.25
2018-08-28T11:37:22.679Z,100788.02
2018-08-28T11:39:50.691Z,100792.17
2018-08-28T11:42:18.833Z,100795.67
2018-08-28T11:44:46.924Z,100791.09
2018-08-28T11:47:15.376Z,100786.01
2018-08-28T11:49:43.408Z,100787.98
2018-08-28T11:52:12.502Z,100783.78
2018-08-28T11:54:40.584Z,100785.14
2018-08-28T11:57:08.665Z,100790.75
2018-08-28T11:59:36.736Z,100783.89
2018-08-28T12:02:04.931Z,100789.61
2018-08-28T12:04:33.078Z,100783.06
2018-08-28T12:07:01.412Z,100777.48
2018-08-28T12:09:29.643Z,100785.54
2018-08-28T12:11:57.788Z,100785.30
2018-08-28T12:14:25.943Z,100780.63
2018-08-28T12:16:54.313Z,100779.70
2018-08-28T12:19:22.336Z,100775.72
2018-08-28T12:21:50.816Z,100784.27
2018-08-28T12:24:19.213Z,100785.13
2018-08-28T12:28:00.622Z,100779.87
2018-08-28T12:30:28.835Z,100776.83
2018-08-28T12:32:57.021Z,100775.25
2018-08-28T12:38:18.021Z,100768.56
2018-08-28T12:44:12.979Z,100742.06
2018-08-28T12:49:37.295Z,100744.41
2018-08-28T13:01:09.226Z,100725.34
2018-08-28T13:09:19.226Z,100723.44
2018-08-28T13:11:47.141Z,100718.77
2018-08-28T13:14:15.870Z,100717.02
2018-08-28T13:16:46.774Z,100700.50
2018-08-28T13:19:14.925Z,100699.42
2018-08-28T13:21:42.853Z,100707.06
2018-08-28T13:24:10.816Z,100716.69
2018-08-28T13:26:38.980Z,100714.03
2018-08-28T13:29:06.932Z,100707.31
2018-08-28T13:31:39.981Z,100698.25
2018-08-28T13:34:26.625Z,100695.16
2018-08-28T13:36:57.018Z,100695.10
2018-08-28T13:42:11.224Z,100696.70
2018-08-28T13:44:39.428Z,100689.61
2018-08-28T13:47:07.533Z,100693.30
2018-08-28T13:49:35.619Z,100693.12
2018-08-28T13:52:03.688Z,100695.16
2018-08-28T13:54:40.446Z,100689.16
2018-08-28T13:57:08.446Z,100687.94
2018-08-28T13:59:36.314Z,100699.17
2018-08-28T14:02:05.490Z,100694.20
2018-08-28T14:04:46.387Z,100686.30
2018-08-28T14:07:14.316Z,100685.39
2018-08-28T14:09:42.373Z,100693.16
2018-08-28T14:12:12.498Z,100698.27
2018-08-28T14:14:40.576Z,100690.67
2018-08-28T14:17:08.495Z,100687.39
2018-08-28T14:19:36.498Z,100687.91
2018-08-28T14:22:04.447Z,100686.50
2018-08-28T14:24:32.590Z,100685.02
2018-08-28T14:27:01.245Z,100690.03
2018-08-28T14:32:21.894Z,100675.67
2018-08-28T14:34:50.854Z,100674.73
2018-08-28T14:37:18.854Z,100675.59
2018-08-28T14:39:46.900Z,100660.73
2018-08-28T14:42:14.884Z,100662.16
2018-08-28T14:44:53.642Z,100657.84
2018-08-28T14:47:22.441Z,100663.64
2018-08-28T14:49:50.579Z,100660.22
2018-08-28T14:52:18.552Z,100652.12
2018-08-28T14:54:46.539Z,100649.95
2018-08-28T14:57:15.535Z,100643.77
2018-08-28T14:59:43.636Z,100649.83
2018-08-28T15:02:12.770Z,100652.33
2018-08-28T15:05:24.132Z,100649.12
2018-08-28T15:07:52.722Z,100651.11
2018-08-28T15:10:21.448Z,100659.66
2018-08-28T15:15:43.054Z,100653.73
2018-08-28T15:26:51.395Z,100643.38
2018-08-28T15:47:52.139Z,100637.74
2018-08-28T15:50:20.425Z,100627.84
2018-08-28T15:56:14.370Z,100636.50
2018-08-28T15:58:42.291Z,100625.91
2018-08-28T16:01:10.282Z,100624.45
2018-08-28T16:04:01.834Z,100623.35
2018-08-28T16:06:30.670Z,100605.28
2018-08-28T16:09:10.346Z,100607.33
2018-08-28T16:17:45.330Z,100614.25
2018-08-28T16:25:59.356Z,100610.03
2018-08-28T16:28:28.061Z,100602.78
2018-08-28T16:33:51.638Z,100601.13
2018-08-28T16:36:32.383Z,100592.08
2018-08-28T16:56:17.243Z,100590.66
2018-08-28T18:56:43.984Z,100566.98
2018-08-28T22:11:08.503Z,100478.44
2018-08-28T22:25:12.785Z,100492.65
2018-08-28T22:30:33.339Z,100489.30
2018-08-28T22:39:34.055Z,100467.61
2018-08-28T22:47:47.980Z,100483.09
2018-08-28T22:50:16.910Z,100487.02
2018-08-28T23:07:09.993Z,100463.48
2018-08-28T23:15:24.354Z,100449.44
2018-08-28T23:17:52.523Z,100442.16
2018-08-28T23:20:20.754Z,100441.96
2018-08-28T23:22:50.006Z,100439.52
2018-08-28T23:25:19.035Z,100431.99
2018-08-28T23:27:49.110Z,100430.89
